Terminal Aerodrome Forecast
Issued by NWS Wilmington, NC

Home | Current Version | Previous Version | Text Only | Print | Product List | Glossary On
Versions: 1 2 3 4 5 6 7 8 9 10 11 12 13 14
000
FTUS42 KILM 232300
TAFFLO
TAF
KFLO 232326Z 2400/2424 16015KT 3SM -RA BR SCT004 BKN008 OVC012
      TEMPO 2401/2405 20015G25KT 2SM +TSRA BKN012CB
     FM240600 21012KT 4SM BR VCSH BKN006
     FM241100 22011KT 3SM BR BKN006
     FM241700 22012G18KT P6SM OVC020
     FM242100 22006KT 6SM BR SCT025 OVC050=

USA.gov is the U.S. government's official web portal to all federal, state and local government web resources and services.